QLK94D YMLT-YMML
Flight info
| Callsign | QLK94D |
|---|---|
| Flight time | 0h 54m |
| Altitude | 24000 |
| Route | LT H215 RAZZI W687 ML |
| Aircraft | DH8D/M-SDE2E3FGRY/H |
Departure
| Time | 2026-05-08 04:36 |
|---|---|
| Airport | Launceston Airport (YMLT) |
Arrival
| Time | 2026-05-08 05:30 |
|---|---|
| Airport | Melbourne Airport (YMML) |
| Time | Latitude | Longitude | Altitude | Speed | Heading |
|---|---|---|---|---|---|
| 2026-05-08 04:16 | -41.54314 | 147.20674 | 569 ft | 0 kts | 291° |
| 2026-05-08 04:33 | -41.54313 | 147.20673 | 569 ft | 1 kts | 294° |
| 2026-05-08 04:33 | -41.54285 | 147.20699 | 565 ft | 10 kts | 30° |
| 2026-05-08 04:33 | -41.54222 | 147.20660 | 565 ft | 10 kts | 326° |
| 2026-05-08 04:33 | -41.54160 | 147.20610 | 565 ft | 10 kts | 325° |
| 2026-05-08 04:34 | -41.54104 | 147.20558 | 566 ft | 12 kts | 328° |
| 2026-05-08 04:34 | -41.53996 | 147.20468 | 567 ft | 23 kts | 327° |
| 2026-05-08 04:34 | -41.53869 | 147.20358 | 569 ft | 19 kts | 328° |
| 2026-05-08 04:34 | -41.53757 | 147.20332 | 572 ft | 15 kts | 41° |
| 2026-05-08 04:35 | -41.53726 | 147.20428 | 572 ft | 8 kts | 131° |
| 2026-05-08 04:35 | -41.53797 | 147.20488 | 568 ft | 29 kts | 148° |
| 2026-05-08 04:35 | -41.54252 | 147.20879 | 560 ft | 119 kts | 147° |
| 2026-05-08 04:35 | -41.55079 | 147.21570 | 705 ft | 153 kts | 153° |
| 2026-05-08 04:36 | -41.56030 | 147.22279 | 1297 ft | 161 kts | 156° |
| 2026-05-08 04:36 | -41.56990 | 147.23051 | 2008 ft | 164 kts | 151° |
| 2026-05-08 04:36 | -41.57925 | 147.23879 | 2690 ft | 167 kts | 160° |
| 2026-05-08 04:36 | -41.58991 | 147.24074 | 3402 ft | 156 kts | 201° |
| 2026-05-08 04:37 | -41.59648 | 147.23012 | 3999 ft | 161 kts | 261° |
| 2026-05-08 04:37 | -41.59353 | 147.21533 | 4644 ft | 176 kts | 294° |
| 2026-05-08 04:37 | -41.58333 | 147.20573 | 5187 ft | 200 kts | 347° |
| 2026-05-08 04:37 | -41.56930 | 147.20662 | 5788 ft | 208 kts | 6° |
| 2026-05-08 04:38 | -41.55474 | 147.20903 | 6455 ft | 213 kts | 6° |
| 2026-05-08 04:38 | -41.53996 | 147.21011 | 7062 ft | 217 kts | 349° |
| 2026-05-08 04:38 | -41.52552 | 147.20430 | 7538 ft | 224 kts | 333° |
| 2026-05-08 04:38 | -41.51067 | 147.19620 | 7949 ft | 239 kts | 333° |
| 2026-05-08 04:39 | -41.49475 | 147.18744 | 8358 ft | 255 kts | 333° |
| 2026-05-08 04:39 | -41.47755 | 147.17799 | 8771 ft | 269 kts | 334° |
| 2026-05-08 04:39 | -41.46032 | 147.16858 | 9437 ft | 270 kts | 334° |
| 2026-05-08 04:39 | -41.44280 | 147.15904 | 10044 ft | 273 kts | 334° |
| 2026-05-08 04:40 | -41.42503 | 147.14938 | 10616 ft | 277 kts | 334° |
| 2026-05-08 04:40 | -41.40721 | 147.13968 | 11200 ft | 279 kts | 334° |
| 2026-05-08 04:40 | -41.38938 | 147.13001 | 11822 ft | 279 kts | 334° |
| 2026-05-08 04:40 | -41.37136 | 147.12021 | 12399 ft | 278 kts | 334° |
| 2026-05-08 04:41 | -41.35326 | 147.11038 | 12876 ft | 282 kts | 334° |
| 2026-05-08 04:41 | -41.33518 | 147.10059 | 13423 ft | 282 kts | 334° |
| 2026-05-08 04:41 | -41.31686 | 147.09065 | 13935 ft | 283 kts | 334° |
| 2026-05-08 04:41 | -41.29836 | 147.08064 | 14363 ft | 287 kts | 334° |
| 2026-05-08 04:42 | -41.28012 | 147.07077 | 14853 ft | 288 kts | 334° |
| 2026-05-08 04:42 | -41.26138 | 147.06065 | 15303 ft | 289 kts | 334° |
| 2026-05-08 04:42 | -41.24268 | 147.05055 | 15731 ft | 291 kts | 334° |
| 2026-05-08 04:42 | -41.22396 | 147.04045 | 16164 ft | 293 kts | 334° |
| 2026-05-08 04:43 | -41.20506 | 147.03026 | 16546 ft | 296 kts | 334° |
| 2026-05-08 04:43 | -41.18602 | 147.02000 | 16965 ft | 297 kts | 334° |
| 2026-05-08 04:43 | -41.16674 | 147.00963 | 17351 ft | 299 kts | 334° |
| 2026-05-08 04:43 | -41.14758 | 146.99931 | 17734 ft | 300 kts | 334° |
| 2026-05-08 04:44 | -41.12797 | 146.98877 | 18087 ft | 302 kts | 334° |
| 2026-05-08 04:44 | -41.10852 | 146.97832 | 18437 ft | 304 kts | 334° |
| 2026-05-08 04:44 | -41.08886 | 146.96776 | 18769 ft | 306 kts | 334° |
| 2026-05-08 04:44 | -41.06908 | 146.95714 | 19109 ft | 308 kts | 334° |
| 2026-05-08 04:45 | -41.04895 | 146.94635 | 19422 ft | 310 kts | 334° |
| 2026-05-08 04:45 | -41.02882 | 146.93556 | 19763 ft | 311 kts | 334° |
| 2026-05-08 04:45 | -41.00891 | 146.92490 | 20080 ft | 312 kts | 334° |
| 2026-05-08 04:45 | -40.98845 | 146.91396 | 20343 ft | 314 kts | 334° |
| 2026-05-08 04:46 | -40.96827 | 146.90315 | 20593 ft | 315 kts | 334° |
| 2026-05-08 04:46 | -40.94765 | 146.89212 | 20821 ft | 318 kts | 333° |
| 2026-05-08 04:46 | -40.92707 | 146.88113 | 21085 ft | 320 kts | 333° |
| 2026-05-08 04:46 | -40.90638 | 146.87009 | 21328 ft | 320 kts | 333° |
| 2026-05-08 04:47 | -40.88585 | 146.85915 | 21543 ft | 322 kts | 333° |
| 2026-05-08 04:47 | -40.86505 | 146.84805 | 21697 ft | 325 kts | 333° |
| 2026-05-08 04:47 | -40.84396 | 146.83682 | 21935 ft | 325 kts | 333° |
| 2026-05-08 04:47 | -40.82314 | 146.82575 | 22160 ft | 325 kts | 333° |
| 2026-05-08 04:48 | -40.80202 | 146.81450 | 22271 ft | 329 kts | 333° |
| 2026-05-08 04:48 | -40.78097 | 146.80333 | 22533 ft | 327 kts | 333° |
| 2026-05-08 04:48 | -40.75983 | 146.79210 | 22685 ft | 329 kts | 333° |
| 2026-05-08 04:48 | -40.73843 | 146.78073 | 22829 ft | 331 kts | 333° |
| 2026-05-08 04:49 | -40.71721 | 146.76949 | 22987 ft | 333 kts | 333° |
| 2026-05-08 04:49 | -40.69549 | 146.75798 | 23186 ft | 333 kts | 333° |
| 2026-05-08 04:49 | -40.67393 | 146.74655 | 23348 ft | 333 kts | 333° |
| 2026-05-08 04:49 | -40.65228 | 146.73509 | 23468 ft | 335 kts | 333° |
| 2026-05-08 04:50 | -40.63090 | 146.72380 | 23604 ft | 337 kts | 333° |
| 2026-05-08 04:50 | -40.60894 | 146.71219 | 23803 ft | 336 kts | 333° |
| 2026-05-08 04:50 | -40.58709 | 146.70065 | 23896 ft | 339 kts | 333° |
| 2026-05-08 04:50 | -40.56528 | 146.68913 | 24027 ft | 340 kts | 334° |
| 2026-05-08 04:51 | -40.54322 | 146.67750 | 24068 ft | 344 kts | 333° |
| 2026-05-08 04:51 | -40.52076 | 146.66565 | 24083 ft | 348 kts | 333° |
| 2026-05-08 04:51 | -40.49798 | 146.65366 | 24085 ft | 353 kts | 334° |
| 2026-05-08 04:51 | -40.47508 | 146.64160 | 24087 ft | 357 kts | 334° |
| 2026-05-08 04:52 | -40.45220 | 146.62956 | 24089 ft | 360 kts | 334° |
| 2026-05-08 04:52 | -40.42861 | 146.61717 | 24089 ft | 363 kts | 334° |
| 2026-05-08 04:52 | -40.40500 | 146.60478 | 24090 ft | 367 kts | 334° |
| 2026-05-08 04:52 | -40.38134 | 146.59236 | 24093 ft | 371 kts | 334° |
| 2026-05-08 04:53 | -40.35718 | 146.57971 | 24101 ft | 373 kts | 334° |
| 2026-05-08 04:53 | -40.33282 | 146.56696 | 24100 ft | 376 kts | 334° |
| 2026-05-08 04:53 | -40.30866 | 146.55432 | 24099 ft | 378 kts | 334° |
| 2026-05-08 04:53 | -40.28402 | 146.54144 | 24096 ft | 380 kts | 334° |
| 2026-05-08 04:54 | -40.25954 | 146.52866 | 24095 ft | 381 kts | 334° |
| 2026-05-08 04:54 | -40.23497 | 146.51584 | 24099 ft | 382 kts | 334° |
| 2026-05-08 04:54 | -40.21017 | 146.50290 | 24103 ft | 383 kts | 334° |
| 2026-05-08 04:54 | -40.18538 | 146.48999 | 24105 ft | 384 kts | 334° |
| 2026-05-08 04:55 | -40.16071 | 146.47714 | 24101 ft | 384 kts | 334° |
| 2026-05-08 04:55 | -40.13580 | 146.46417 | 24098 ft | 385 kts | 334° |
| 2026-05-08 04:55 | -40.11098 | 146.45128 | 24106 ft | 385 kts | 335° |
| 2026-05-08 04:55 | -40.08622 | 146.43840 | 24111 ft | 385 kts | 334° |
| 2026-05-08 04:56 | -40.06115 | 146.42540 | 24114 ft | 385 kts | 334° |
| 2026-05-08 04:56 | -40.03637 | 146.41254 | 24117 ft | 386 kts | 335° |
| 2026-05-08 04:56 | -40.01129 | 146.39954 | 24116 ft | 386 kts | 334° |
| 2026-05-08 04:56 | -39.98639 | 146.38666 | 24118 ft | 386 kts | 335° |
| 2026-05-08 04:57 | -39.96124 | 146.37369 | 24121 ft | 386 kts | 335° |
| 2026-05-08 04:57 | -39.93650 | 146.36096 | 24121 ft | 386 kts | 334° |
| 2026-05-08 04:57 | -39.91127 | 146.34798 | 24119 ft | 386 kts | 335° |
| 2026-05-08 04:57 | -39.88635 | 146.33519 | 24114 ft | 386 kts | 335° |
| 2026-05-08 04:58 | -39.86151 | 146.32243 | 24116 ft | 385 kts | 335° |
| 2026-05-08 04:58 | -39.83630 | 146.30949 | 24122 ft | 384 kts | 335° |
| 2026-05-08 04:58 | -39.81120 | 146.29663 | 24124 ft | 384 kts | 335° |
| 2026-05-08 04:58 | -39.78644 | 146.28395 | 24128 ft | 384 kts | 335° |
| 2026-05-08 04:59 | -39.76142 | 146.27113 | 24123 ft | 384 kts | 335° |
| 2026-05-08 04:59 | -39.73671 | 146.25850 | 24127 ft | 384 kts | 335° |
| 2026-05-08 04:59 | -39.71180 | 146.24576 | 24128 ft | 383 kts | 335° |
| 2026-05-08 04:59 | -39.68684 | 146.23300 | 24128 ft | 384 kts | 335° |
| 2026-05-08 05:00 | -39.66207 | 146.22037 | 24132 ft | 383 kts | 335° |
| 2026-05-08 05:00 | -39.63737 | 146.20776 | 24133 ft | 384 kts | 335° |
| 2026-05-08 05:00 | -39.61228 | 146.19498 | 24131 ft | 384 kts | 335° |
| 2026-05-08 05:00 | -39.58751 | 146.18236 | 24129 ft | 384 kts | 335° |
| 2026-05-08 05:01 | -39.56233 | 146.16956 | 24130 ft | 384 kts | 336° |
| 2026-05-08 05:01 | -39.53770 | 146.15703 | 24128 ft | 385 kts | 336° |
| 2026-05-08 05:01 | -39.51288 | 146.14442 | 24134 ft | 384 kts | 335° |
| 2026-05-08 05:01 | -39.48774 | 146.13165 | 24136 ft | 384 kts | 335° |
| 2026-05-08 05:02 | -39.46287 | 146.11903 | 24141 ft | 384 kts | 336° |
| 2026-05-08 05:02 | -39.43791 | 146.10638 | 24137 ft | 384 kts | 335° |
| 2026-05-08 05:02 | -39.41330 | 146.09392 | 24140 ft | 384 kts | 335° |
| 2026-05-08 05:02 | -39.38817 | 146.08121 | 24141 ft | 385 kts | 335° |
| 2026-05-08 05:03 | -39.36310 | 146.06853 | 24139 ft | 385 kts | 336° |
| 2026-05-08 05:03 | -39.33832 | 146.05600 | 24140 ft | 385 kts | 335° |
| 2026-05-08 05:03 | -39.31332 | 146.04338 | 24138 ft | 385 kts | 336° |
| 2026-05-08 05:03 | -39.28856 | 146.03090 | 24142 ft | 385 kts | 336° |
| 2026-05-08 05:04 | -39.26355 | 146.01828 | 24144 ft | 385 kts | 336° |
| 2026-05-08 05:04 | -39.23871 | 146.00577 | 24145 ft | 385 kts | 335° |
| 2026-05-08 05:04 | -39.21354 | 145.99310 | 24144 ft | 385 kts | 335° |
| 2026-05-08 05:04 | -39.18867 | 145.98059 | 24147 ft | 385 kts | 336° |
| 2026-05-08 05:05 | -39.16392 | 145.96815 | 24150 ft | 385 kts | 336° |
| 2026-05-08 05:05 | -39.13854 | 145.95540 | 24143 ft | 385 kts | 335° |
| 2026-05-08 05:05 | -39.11372 | 145.94295 | 24147 ft | 385 kts | 336° |
| 2026-05-08 05:05 | -39.08858 | 145.93034 | 24152 ft | 385 kts | 336° |
| 2026-05-08 05:06 | -39.06374 | 145.91789 | 24152 ft | 386 kts | 336° |
| 2026-05-08 05:06 | -39.03869 | 145.90535 | 24154 ft | 386 kts | 335° |
| 2026-05-08 05:06 | -39.01374 | 145.89287 | 24158 ft | 386 kts | 336° |
| 2026-05-08 05:06 | -38.98880 | 145.88040 | 24153 ft | 386 kts | 336° |
| 2026-05-08 05:07 | -38.96360 | 145.86781 | 24156 ft | 386 kts | 335° |
| 2026-05-08 05:07 | -38.93829 | 145.85518 | 24158 ft | 386 kts | 336° |
| 2026-05-08 05:07 | -38.91341 | 145.84277 | 24156 ft | 386 kts | 336° |
| 2026-05-08 05:07 | -38.88783 | 145.83003 | 24158 ft | 386 kts | 336° |
| 2026-05-08 05:08 | -38.86291 | 145.81763 | 24165 ft | 385 kts | 336° |
| 2026-05-08 05:08 | -38.83786 | 145.80516 | 24167 ft | 384 kts | 336° |
| 2026-05-08 05:08 | -38.81308 | 145.79283 | 24164 ft | 384 kts | 336° |
| 2026-05-08 05:08 | -38.78790 | 145.78033 | 24159 ft | 383 kts | 336° |
| 2026-05-08 05:09 | -38.76397 | 145.76845 | 24163 ft | 382 kts | 336° |
| 2026-05-08 05:09 | -38.74205 | 145.75757 | 24168 ft | 382 kts | 336° |
| 2026-05-08 05:09 | -38.71727 | 145.74528 | 24166 ft | 382 kts | 336° |
| 2026-05-08 05:09 | -38.69228 | 145.73291 | 24164 ft | 381 kts | 336° |
| 2026-05-08 05:10 | -38.66763 | 145.72070 | 24167 ft | 376 kts | 336° |
| 2026-05-08 05:10 | -38.61972 | 145.69701 | 24169 ft | 370 kts | 336° |
| 2026-05-08 05:10 | -38.59520 | 145.68489 | 24171 ft | 368 kts | 336° |
| 2026-05-08 05:11 | -38.57147 | 145.67317 | 24180 ft | 366 kts | 336° |
| 2026-05-08 05:11 | -38.54784 | 145.66151 | 24186 ft | 365 kts | 336° |
| 2026-05-08 05:11 | -38.52388 | 145.64969 | 23868 ft | 373 kts | 336° |
| 2026-05-08 05:11 | -38.49936 | 145.63760 | 23459 ft | 383 kts | 336° |
| 2026-05-08 05:12 | -38.47421 | 145.62503 | 23010 ft | 383 kts | 334° |
| 2026-05-08 05:12 | -38.45033 | 145.60989 | 22579 ft | 378 kts | 328° |
| 2026-05-08 05:12 | -38.42745 | 145.59401 | 22136 ft | 375 kts | 328° |
| 2026-05-08 05:12 | -38.40445 | 145.57802 | 21694 ft | 373 kts | 328° |
| 2026-05-08 05:13 | -38.38187 | 145.56235 | 21269 ft | 370 kts | 328° |
| 2026-05-08 05:13 | -38.35920 | 145.54666 | 20841 ft | 368 kts | 328° |
| 2026-05-08 05:13 | -38.33684 | 145.53120 | 20417 ft | 365 kts | 328° |
| 2026-05-08 05:13 | -38.31458 | 145.51585 | 19993 ft | 363 kts | 328° |
| 2026-05-08 05:14 | -38.29245 | 145.50061 | 19574 ft | 361 kts | 328° |
| 2026-05-08 05:14 | -38.27041 | 145.48546 | 19161 ft | 358 kts | 328° |
| 2026-05-08 05:14 | -38.24870 | 145.47054 | 18746 ft | 356 kts | 328° |
| 2026-05-08 05:14 | -38.22693 | 145.45560 | 18337 ft | 354 kts | 328° |
| 2026-05-08 05:15 | -38.20513 | 145.44064 | 17930 ft | 351 kts | 328° |
| 2026-05-08 05:15 | -38.18394 | 145.42613 | 17528 ft | 349 kts | 328° |
| 2026-05-08 05:15 | -38.16234 | 145.41135 | 17117 ft | 347 kts | 328° |
| 2026-05-08 05:15 | -38.14097 | 145.39673 | 16710 ft | 346 kts | 328° |
| 2026-05-08 05:16 | -38.11996 | 145.38237 | 16316 ft | 345 kts | 328° |
| 2026-05-08 05:16 | -38.09856 | 145.36775 | 15912 ft | 345 kts | 328° |
| 2026-05-08 05:16 | -38.07755 | 145.35341 | 15511 ft | 345 kts | 328° |
| 2026-05-08 05:16 | -38.05624 | 145.33887 | 15106 ft | 345 kts | 328° |
| 2026-05-08 05:17 | -38.03530 | 145.32460 | 14713 ft | 345 kts | 328° |
| 2026-05-08 05:17 | -38.01460 | 145.31052 | 14321 ft | 342 kts | 328° |
| 2026-05-08 05:17 | -37.99327 | 145.29575 | 13917 ft | 341 kts | 327° |
| 2026-05-08 05:17 | -37.97255 | 145.28119 | 13511 ft | 341 kts | 327° |
| 2026-05-08 05:18 | -37.95216 | 145.26689 | 13127 ft | 339 kts | 327° |
| 2026-05-08 05:18 | -37.93139 | 145.25232 | 12735 ft | 339 kts | 327° |
| 2026-05-08 05:18 | -37.91073 | 145.23787 | 12349 ft | 338 kts | 327° |
| 2026-05-08 05:18 | -37.89021 | 145.22351 | 11950 ft | 337 kts | 327° |
| 2026-05-08 05:19 | -37.86971 | 145.20920 | 11548 ft | 335 kts | 327° |
| 2026-05-08 05:19 | -37.84913 | 145.19484 | 11151 ft | 333 kts | 327° |
| 2026-05-08 05:19 | -37.82884 | 145.18088 | 10777 ft | 332 kts | 327° |
| 2026-05-08 05:19 | -37.80937 | 145.16791 | 10401 ft | 328 kts | 328° |
| 2026-05-08 05:20 | -37.79262 | 145.15680 | 10085 ft | 326 kts | 328° |
| 2026-05-08 05:20 | -37.77259 | 145.14351 | 9704 ft | 322 kts | 328° |
| 2026-05-08 05:20 | -37.75265 | 145.13025 | 9127 ft | 321 kts | 328° |
| 2026-05-08 05:20 | -37.73296 | 145.11714 | 8685 ft | 312 kts | 328° |
| 2026-05-08 05:21 | -37.71405 | 145.10478 | 8312 ft | 299 kts | 329° |
| 2026-05-08 05:21 | -37.69558 | 145.09375 | 7964 ft | 287 kts | 330° |
| 2026-05-08 05:21 | -37.67831 | 145.08360 | 7645 ft | 274 kts | 330° |
| 2026-05-08 05:21 | -37.66246 | 145.07426 | 7354 ft | 262 kts | 330° |
| 2026-05-08 05:22 | -37.64594 | 145.06451 | 7050 ft | 250 kts | 330° |
| 2026-05-08 05:22 | -37.63044 | 145.05533 | 6763 ft | 239 kts | 330° |
| 2026-05-08 05:22 | -37.61564 | 145.04656 | 6483 ft | 228 kts | 329° |
| 2026-05-08 05:22 | -37.60152 | 145.03818 | 6219 ft | 215 kts | 329° |
| 2026-05-08 05:23 | -37.58818 | 145.03027 | 5976 ft | 208 kts | 329° |
| 2026-05-08 05:23 | -37.57484 | 145.02241 | 5749 ft | 213 kts | 329° |
| 2026-05-08 05:23 | -37.56122 | 145.01425 | 5506 ft | 221 kts | 327° |
| 2026-05-08 05:23 | -37.54866 | 145.00326 | 5248 ft | 218 kts | 313° |
| 2026-05-08 05:24 | -37.53740 | 144.99069 | 5003 ft | 218 kts | 312° |
| 2026-05-08 05:24 | -37.52622 | 144.97809 | 4742 ft | 214 kts | 312° |
| 2026-05-08 05:24 | -37.51513 | 144.96565 | 4487 ft | 210 kts | 311° |
| 2026-05-08 05:24 | -37.50426 | 144.95349 | 4275 ft | 203 kts | 311° |
| 2026-05-08 05:25 | -37.49580 | 144.94054 | 4084 ft | 181 kts | 281° |
| 2026-05-08 05:25 | -37.49692 | 144.92615 | 3856 ft | 163 kts | 236° |
| 2026-05-08 05:25 | -37.50375 | 144.91469 | 3688 ft | 165 kts | 227° |
| 2026-05-08 05:25 | -37.51162 | 144.90372 | 3497 ft | 172 kts | 225° |
| 2026-05-08 05:26 | -37.52036 | 144.89284 | 3290 ft | 180 kts | 223° |
| 2026-05-08 05:26 | -37.52943 | 144.88242 | 3090 ft | 170 kts | 220° |
| 2026-05-08 05:26 | -37.53746 | 144.87215 | 2878 ft | 159 kts | 234° |
| 2026-05-08 05:26 | -37.54233 | 144.86046 | 2701 ft | 143 kts | 238° |
| 2026-05-08 05:27 | -37.54757 | 144.85017 | 2571 ft | 134 kts | 229° |
| 2026-05-08 05:27 | -37.55379 | 144.84158 | 2453 ft | 131 kts | 221° |
| 2026-05-08 05:27 | -37.56088 | 144.83464 | 2310 ft | 129 kts | 213° |
| 2026-05-08 05:27 | -37.56899 | 144.82916 | 2114 ft | 133 kts | 204° |
| 2026-05-08 05:28 | -37.57774 | 144.82547 | 1895 ft | 134 kts | 195° |
| 2026-05-08 05:28 | -37.58698 | 144.82369 | 1659 ft | 131 kts | 186° |
| 2026-05-08 05:28 | -37.59598 | 144.82388 | 1424 ft | 130 kts | 178° |
| 2026-05-08 05:28 | -37.60499 | 144.82587 | 1255 ft | 130 kts | 172° |
| 2026-05-08 05:29 | -37.61400 | 144.82785 | 1151 ft | 133 kts | 175° |
| 2026-05-08 05:29 | -37.62327 | 144.82932 | 1038 ft | 136 kts | 175° |
| 2026-05-08 05:29 | -37.63289 | 144.83119 | 891 ft | 137 kts | 173° |
| 2026-05-08 05:29 | -37.64223 | 144.83295 | 720 ft | 135 kts | 174° |
| 2026-05-08 05:30 | -37.65157 | 144.83464 | 549 ft | 136 kts | 173° |
| 2026-05-08 05:30 | -37.66077 | 144.83637 | 444 ft | 125 kts | 172° |
| 2026-05-08 05:30 | -37.66724 | 144.83752 | 443 ft | 70 kts | 171° |
| 2026-05-08 05:30 | -37.67049 | 144.83874 | 443 ft | 37 kts | 145° |
| 2026-05-08 05:31 | -37.67144 | 144.83968 | 443 ft | 4 kts | 140° |
| 2026-05-08 05:31 | -37.67176 | 144.84015 | 443 ft | 8 kts | 98° |
| 2026-05-08 05:31 | -37.67118 | 144.84047 | 443 ft | 12 kts | 348° |
| 2026-05-08 05:31 | -37.67005 | 144.84024 | 443 ft | 19 kts | 351° |
| 2026-05-08 05:32 | -37.66873 | 144.84000 | 443 ft | 18 kts | 352° |
| 2026-05-08 05:32 | -37.66750 | 144.83984 | 443 ft | 16 kts | 19° |
| 2026-05-08 05:32 | -37.66713 | 144.84111 | 443 ft | 15 kts | 81° |
| 2026-05-08 05:32 | -37.66696 | 144.84242 | 443 ft | 15 kts | 80° |
| 2026-05-08 05:33 | -37.66679 | 144.84396 | 443 ft | 19 kts | 82° |
| 2026-05-08 05:33 | -37.66659 | 144.84560 | 443 ft | 17 kts | 81° |
| 2026-05-08 05:33 | -37.66642 | 144.84708 | 443 ft | 17 kts | 82° |
| 2026-05-08 05:33 | -37.66571 | 144.84813 | 443 ft | 16 kts | 35° |
| 2026-05-08 05:34 | -37.66536 | 144.84941 | 443 ft | 15 kts | 80° |
| 2026-05-08 05:34 | -37.66548 | 144.85049 | 443 ft | 11 kts | 148° |
| 2026-05-08 05:34 | -37.66589 | 144.85112 | 443 ft | 10 kts | 84° |
| 2026-05-08 05:34 | -37.66575 | 144.85233 | 443 ft | 17 kts | 81° |
| 2026-05-08 05:35 | -37.66605 | 144.85352 | 443 ft | 8 kts | 164° |
| 2026-05-08 05:35 | -37.66629 | 144.85316 | 443 ft | 6 kts | 263° |
| 2026-05-08 05:35 | -37.66636 | 144.85263 | 443 ft | 3 kts | 261° |